createdAt,value
2018-12-29T00:01:39.380Z,46.47
2018-12-29T00:03:43.316Z,48.47
2018-12-29T00:05:47.279Z,49.00
2018-12-29T00:07:52.593Z,48.80
2018-12-29T00:09:59.330Z,48.80
2018-12-29T00:12:03.340Z,49.37
2018-12-29T00:14:07.464Z,49.70
2018-12-29T00:16:14.532Z,51.30
2018-12-29T00:18:21.587Z,46.00
2018-12-29T00:20:34.647Z,51.17
2018-12-29T00:22:43.653Z,46.00
2018-12-29T00:24:54.432Z,48.20
2018-12-29T00:27:01.156Z,48.67
2018-12-29T00:30:15.298Z,47.73
2018-12-29T00:33:36.474Z,47.53
2018-12-29T00:41:38.269Z,45.80
2018-12-29T00:42:00.031Z,49.90
2018-12-29T01:00:57.687Z,52.57
2018-12-29T01:04:18.962Z,52.47
2018-12-29T01:09:28.416Z,53.60
2018-12-29T01:18:45.066Z,50.50
2018-12-29T01:20:50.718Z,49.33
2018-12-29T01:22:54.745Z,51.90
2018-12-29T01:25:00.664Z,54.13
2018-12-29T01:27:04.835Z,55.90
2018-12-29T01:29:10.420Z,54.07
2018-12-29T01:31:17.647Z,53.90
2018-12-29T01:33:21.636Z,56.50
2018-12-29T01:35:30.651Z,57.80
2018-12-29T01:37:39.391Z,60.20
2018-12-29T01:39:45.801Z,55.53
2018-12-29T01:42:01.261Z,58.67
2018-12-29T01:44:05.393Z,59.10
2018-12-29T01:46:18.091Z,57.10
2018-12-29T01:48:22.191Z,56.10
2018-12-29T01:50:27.414Z,62.20
2018-12-29T01:52:31.483Z,55.07
2018-12-29T01:54:51.826Z,58.97
2018-12-29T01:56:56.084Z,57.37
2018-12-29T01:59:03.242Z,59.40
2018-12-29T02:01:09.309Z,57.00
2018-12-29T02:03:22.140Z,58.97
2018-12-29T02:05:29.323Z,53.20
2018-12-29T02:07:36.100Z,58.03
2018-12-29T02:09:42.981Z,54.27
2018-12-29T02:11:49.988Z,56.57
2018-12-29T02:13:59.185Z,57.47
2018-12-29T02:16:06.333Z,57.80
2018-12-29T02:18:10.386Z,55.60
2018-12-29T02:20:15.870Z,57.10
2018-12-29T02:22:26.237Z,57.50
2018-12-29T02:24:39.192Z,55.97
2018-12-29T02:26:43.580Z,58.23
2018-12-29T02:28:54.877Z,57.53
2018-12-29T02:31:01.318Z,55.13
2018-12-29T02:33:13.893Z,54.03
2018-12-29T02:35:25.909Z,56.60
2018-12-29T02:37:33.201Z,53.57
2018-12-29T02:39:39.562Z,53.00
2018-12-29T02:41:46.402Z,54.23
2018-12-29T02:44:21.141Z,52.73
2018-12-29T02:46:30.865Z,55.70
2018-12-29T02:49:48.228Z,53.33
2018-12-29T02:51:58.270Z,52.87
2018-12-29T02:54:02.286Z,54.27
2018-12-29T02:56:11.853Z,56.03
2018-12-29T02:58:26.467Z,56.47
2018-12-29T03:00:48.841Z,57.27
2018-12-29T03:03:32.483Z,52.17
2018-12-29T03:05:46.330Z,54.97
2018-12-29T03:08:14.859Z,52.97
2018-12-29T03:10:18.540Z,56.17
2018-12-29T03:13:03.089Z,57.97
2018-12-29T03:15:12.035Z,56.70
2018-12-29T03:17:30.124Z,60.73
2018-12-29T03:19:42.755Z,60.07
2018-12-29T03:22:04.908Z,57.57
2018-12-29T03:24:18.576Z,56.90
2018-12-29T03:26:24.597Z,57.00
2018-12-29T03:28:31.086Z,54.83
2018-12-29T03:34:04.418Z,56.70
2018-12-29T03:36:14.695Z,51.03
2018-12-29T03:38:50.576Z,54.77
2018-12-29T03:41:34.994Z,54.93
2018-12-29T03:44:18.831Z,53.00
2018-12-29T03:46:18.581Z,55.50
2018-12-29T03:48:52.933Z,57.17
2018-12-29T03:51:20.062Z,54.03
2018-12-29T03:53:29.269Z,54.97
2018-12-29T03:57:08.612Z,59.60
2018-12-29T03:58:22.219Z,55.80
2018-12-29T04:00:52.688Z,58.87
2018-12-29T04:02:56.016Z,54.80
2018-12-29T04:05:10.254Z,54.60
2018-12-29T04:07:26.223Z,57.30
2018-12-29T04:09:37.314Z,52.50
2018-12-29T04:12:01.065Z,56.33
2018-12-29T04:14:32.875Z,57.37
2018-12-29T04:17:29.594Z,52.97
2018-12-29T04:19:51.651Z,54.77
2018-12-29T04:21:57.181Z,55.27
2018-12-29T04:24:01.511Z,54.60
2018-12-29T04:26:32.707Z,51.30
2018-12-29T04:28:48.800Z,52.50
2018-12-29T04:30:56.753Z,55.03
2018-12-29T04:33:06.018Z,51.10
2018-12-29T04:35:10.011Z,47.00
2018-12-29T04:37:56.908Z,52.67
2018-12-29T04:40:03.098Z,46.50
2018-12-29T04:42:07.112Z,47.80
2018-12-29T04:44:14.064Z,50.50
2018-12-29T04:46:18.071Z,52.57
2018-12-29T04:48:21.997Z,50.50
2018-12-29T04:50:26.048Z,52.27
2018-12-29T04:52:29.835Z,49.13
2018-12-29T04:54:33.862Z,49.00
2018-12-29T04:56:37.882Z,48.00
2018-12-29T04:58:41.646Z,49.03
2018-12-29T05:00:45.420Z,47.30
2018-12-29T05:02:49.201Z,46.10
2018-12-29T05:04:53.413Z,46.37
2018-12-29T05:06:57.421Z,45.70
2018-12-29T05:09:01.201Z,47.40
2018-12-29T05:11:05.211Z,47.10
2018-12-29T05:13:08.963Z,49.60
2018-12-29T05:15:12.746Z,46.97
2018-12-29T05:17:16.536Z,46.70
2018-12-29T05:19:20.302Z,47.73
2018-12-29T05:21:24.063Z,45.33
2018-12-29T05:23:27.898Z,49.87
2018-12-29T05:25:31.665Z,47.43
2018-12-29T05:27:35.775Z,49.10
2018-12-29T05:29:39.558Z,49.40
2018-12-29T05:31:43.395Z,48.77
2018-12-29T05:33:47.147Z,46.37
2018-12-29T05:35:50.947Z,47.33
2018-12-29T05:37:54.724Z,49.57
2018-12-29T05:40:00.931Z,47.90
2018-12-29T05:42:04.771Z,46.37
2018-12-29T05:44:08.943Z,50.27
2018-12-29T05:46:20.128Z,48.77
2018-12-29T05:48:18.667Z,44.97
2018-12-29T05:50:22.727Z,51.43
2018-12-29T05:52:26.982Z,50.80
2018-12-29T05:54:31.487Z,50.10
2018-12-29T05:56:35.790Z,47.77
2018-12-29T05:58:40.061Z,48.90
2018-12-29T06:00:45.289Z,47.63
2018-12-29T06:02:49.398Z,46.73
2018-12-29T06:04:53.581Z,48.47
2018-12-29T06:06:57.843Z,47.93
2018-12-29T06:09:02.482Z,46.70
2018-12-29T06:11:07.118Z,50.47
2018-12-29T06:13:12.292Z,50.73
2018-12-29T06:15:17.509Z,48.97
2018-12-29T06:17:21.924Z,52.83
2018-12-29T06:19:27.093Z,51.67
2018-12-29T06:21:31.484Z,47.40
2018-12-29T06:23:35.798Z,50.60
2018-12-29T06:25:39.918Z,52.00
2018-12-29T06:27:44.308Z,50.33
2018-12-29T06:29:49.303Z,47.37
2018-12-29T06:31:53.945Z,50.30
2018-12-29T06:33:58.584Z,54.80
2018-12-29T06:36:03.433Z,54.57
2018-12-29T06:38:07.596Z,50.77
2018-12-29T06:40:13.653Z,54.23
2018-12-29T06:42:18.079Z,53.90
2018-12-29T06:44:22.396Z,53.20
2018-12-29T06:46:26.676Z,54.00
2018-12-29T06:48:31.632Z,51.80
2018-12-29T06:50:36.162Z,52.17
2018-12-29T06:52:40.252Z,52.97
2018-12-29T06:54:46.051Z,52.43
2018-12-29T06:56:50.651Z,51.40
2018-12-29T06:58:55.145Z,50.63
2018-12-29T07:00:59.521Z,53.60
2018-12-29T07:03:04.130Z,54.67
2018-12-29T07:05:08.830Z,56.47
2018-12-29T07:07:13.481Z,52.50
2018-12-29T07:09:17.803Z,56.17
2018-12-29T07:11:22.150Z,56.10
2018-12-29T07:13:26.568Z,57.40
2018-12-29T07:15:31.117Z,58.23
2018-12-29T07:17:35.894Z,57.23
2018-12-29T07:19:40.053Z,56.90
2018-12-29T07:21:44.402Z,58.37
2018-12-29T07:23:49.012Z,58.53
2018-12-29T07:25:53.785Z,55.23
2018-12-29T07:27:58.069Z,59.47
2018-12-29T07:30:02.390Z,60.10
2018-12-29T07:32:09.752Z,58.53
2018-12-29T07:34:14.141Z,58.53
2018-12-29T07:36:18.346Z,55.70
2018-12-29T07:38:22.244Z,57.37
2018-12-29T07:40:26.678Z,54.20
2018-12-29T07:42:30.737Z,58.53
2018-12-29T07:44:35.015Z,56.70
2018-12-29T07:46:56.453Z,57.23
2018-12-29T07:49:04.590Z,57.30
2018-12-29T07:51:15.498Z,58.17
2018-12-29T07:53:30.202Z,57.17
2018-12-29T07:55:36.183Z,58.17
2018-12-29T07:57:52.785Z,56.60
2018-12-29T08:00:04.126Z,60.47
2018-12-29T08:02:21.558Z,58.87
2018-12-29T08:04:34.584Z,58.17
2018-12-29T08:06:48.959Z,61.63
2018-12-29T08:09:11.626Z,58.30
2018-12-29T08:11:58.952Z,58.60
2018-12-29T08:14:21.750Z,56.30
2018-12-29T08:16:41.090Z,58.57
2018-12-29T08:19:06.289Z,55.00
2018-12-29T08:21:13.098Z,57.80
2018-12-29T08:23:26.792Z,56.20
2018-12-29T08:25:36.535Z,58.63
2018-12-29T08:27:48.450Z,56.87
2018-12-29T08:30:01.703Z,55.80
2018-12-29T08:32:14.312Z,59.50
2018-12-29T08:34:20.702Z,61.20
2018-12-29T08:36:25.355Z,58.83
2018-12-29T08:38:42.625Z,56.87
2018-12-29T08:40:52.965Z,57.83
2018-12-29T08:43:01.146Z,60.57
2018-12-29T08:45:10.445Z,58.50
2018-12-29T08:47:18.176Z,59.60
2018-12-29T08:49:28.171Z,59.33
2018-12-29T08:51:37.389Z,60.77
2018-12-29T08:53:53.196Z,56.80
2018-12-29T08:56:02.050Z,55.43
2018-12-29T08:58:08.495Z,58.80
2018-12-29T09:00:18.074Z,59.90
2018-12-29T09:02:26.571Z,61.03
2018-12-29T09:04:34.370Z,59.03
2018-12-29T09:06:47.607Z,58.13
2018-12-29T09:08:56.462Z,58.23
2018-12-29T09:11:06.605Z,60.17
2018-12-29T09:13:17.950Z,59.47
2018-12-29T09:15:40.035Z,61.10
2018-12-29T09:18:21.786Z,58.27
2018-12-29T09:20:32.484Z,58.90
2018-12-29T09:22:53.169Z,61.00
2018-12-29T09:24:56.581Z,56.90
2018-12-29T09:27:13.915Z,58.17
2018-12-29T09:29:26.677Z,59.23
2018-12-29T09:31:30.491Z,58.87
2018-12-29T09:33:44.404Z,60.40
2018-12-29T09:35:54.322Z,61.70
2018-12-29T09:38:01.262Z,61.20
2018-12-29T09:40:33.903Z,62.30
2018-12-29T09:42:47.088Z,64.30
2018-12-29T09:45:17.627Z,62.30
2018-12-29T09:47:49.002Z,59.60
2018-12-29T09:50:26.869Z,62.13
2018-12-29T09:52:34.361Z,62.60
2018-12-29T09:54:48.245Z,63.73
2018-12-29T09:57:08.347Z,62.20
2018-12-29T09:59:40.801Z,62.90
2018-12-29T10:02:01.133Z,63.77
2018-12-29T10:04:31.500Z,64.50
2018-12-29T10:06:41.789Z,64.63
2018-12-29T10:11:36.390Z,64.40
2018-12-29T10:14:01.527Z,63.03
2018-12-29T10:16:19.361Z,61.07
2018-12-29T10:18:36.874Z,63.50
2018-12-29T10:21:13.019Z,61.67
2018-12-29T10:23:31.319Z,63.47
2018-12-29T10:25:46.595Z,61.10
2018-12-29T10:27:50.491Z,62.87
2018-12-29T10:29:54.496Z,58.90
2018-12-29T10:31:58.271Z,65.60
2018-12-29T10:34:02.056Z,60.10
2018-12-29T10:36:05.878Z,59.73
2018-12-29T10:38:09.651Z,61.73
2018-12-29T10:40:13.465Z,61.63
2018-12-29T10:42:18.043Z,66.23
2018-12-29T10:44:22.330Z,62.03
2018-12-29T10:46:26.192Z,56.17
2018-12-29T10:48:29.968Z,64.70
2018-12-29T10:50:33.810Z,62.80
2018-12-29T10:52:37.659Z,66.20
2018-12-29T10:54:41.442Z,64.80
2018-12-29T10:56:45.207Z,67.43
2018-12-29T10:58:48.994Z,66.70
2018-12-29T11:00:52.767Z,67.93
2018-12-29T11:02:56.670Z,66.07
2018-12-29T11:05:00.670Z,64.97
2018-12-29T11:07:04.574Z,63.70
2018-12-29T11:09:08.352Z,64.97
2018-12-29T11:11:12.185Z,65.23
2018-12-29T11:13:16.058Z,62.27
2018-12-29T11:15:20.393Z,66.27
2018-12-29T11:17:24.409Z,62.37
2018-12-29T11:19:28.274Z,62.23
2018-12-29T11:21:32.292Z,57.07
2018-12-29T11:23:36.089Z,63.93
2018-12-29T11:25:39.846Z,59.67
2018-12-29T11:27:44.143Z,58.73
2018-12-29T11:29:47.902Z,55.00
2018-12-29T11:31:51.913Z,58.43
2018-12-29T11:33:55.671Z,60.80
2018-12-29T11:35:59.431Z,60.27
2018-12-29T11:38:03.190Z,56.80
2018-12-29T11:40:07.148Z,57.07
2018-12-29T11:42:11.178Z,59.33
2018-12-29T11:44:15.000Z,54.80
2018-12-29T11:46:21.794Z,56.50
2018-12-29T11:48:25.856Z,54.90
2018-12-29T11:50:35.410Z,56.73
2018-12-29T11:52:39.327Z,49.03
2018-12-29T11:54:43.858Z,53.90
2018-12-29T11:57:46.038Z,49.57
2018-12-29T12:03:18.704Z,51.60
2018-12-29T12:05:55.795Z,51.57
2018-12-29T12:11:37.338Z,50.43
2018-12-29T12:14:38.976Z,48.43
2018-12-29T12:16:51.968Z,49.20
2018-12-29T12:19:06.399Z,48.50
2018-12-29T12:21:20.551Z,44.07
2018-12-29T12:24:08.261Z,45.97
2018-12-29T12:26:28.917Z,45.43
2018-12-29T12:28:50.322Z,46.03
2018-12-29T12:31:02.376Z,45.33
2018-12-29T12:33:24.172Z,45.20
2018-12-29T12:35:39.856Z,44.43
2018-12-29T12:37:53.780Z,43.77
2018-12-29T12:40:12.705Z,42.47
2018-12-29T12:42:12.327Z,40.67
2018-12-29T12:44:23.869Z,40.37
2018-12-29T12:46:42.205Z,42.37
2018-12-29T12:48:48.538Z,42.67
2018-12-29T12:51:03.637Z,42.30
2018-12-29T12:53:07.860Z,41.43
2018-12-29T12:55:21.826Z,42.27
2018-12-29T12:57:38.618Z,39.87
2018-12-29T12:59:48.703Z,38.33
2018-12-29T13:02:03.899Z,41.70
2018-12-29T13:04:50.026Z,41.73
2018-12-29T13:07:01.538Z,40.00
2018-12-29T13:09:16.917Z,39.50
2018-12-29T13:11:18.464Z,37.27
2018-12-29T13:13:24.235Z,40.33
2018-12-29T13:15:31.113Z,40.30
2018-12-29T13:17:38.372Z,41.60
2018-12-29T13:26:03.441Z,40.80
2018-12-29T13:28:17.579Z,37.27
2018-12-29T13:30:21.363Z,37.87
2018-12-29T13:32:36.439Z,37.07
2018-12-29T13:35:30.423Z,42.23
2018-12-29T13:41:53.730Z,38.10
2018-12-29T13:44:27.636Z,38.00
2018-12-29T13:46:37.837Z,36.07
2018-12-29T13:49:04.429Z,41.20
2018-12-29T13:51:17.337Z,40.23
2018-12-29T13:56:01.910Z,41.60
2018-12-29T13:57:11.485Z,36.27
2018-12-29T14:00:29.729Z,37.40
2018-12-29T14:03:21.475Z,39.63
2018-12-29T14:05:46.693Z,35.70
2018-12-29T14:10:26.247Z,35.57
2018-12-29T14:13:16.828Z,34.47
2018-12-29T14:15:36.382Z,35.83
2018-12-29T14:17:45.787Z,31.73
2018-12-29T14:19:49.884Z,29.80
2018-12-29T14:22:07.323Z,30.13
2018-12-29T14:24:35.421Z,31.40
2018-12-29T14:26:39.413Z,30.27
2018-12-29T14:28:56.877Z,32.37
2018-12-29T14:31:04.517Z,31.23
2018-12-29T14:34:08.164Z,32.30
2018-12-29T14:37:08.077Z,29.07
2018-12-29T14:39:28.164Z,30.90
2018-12-29T14:41:37.936Z,33.70
2018-12-29T14:44:35.339Z,30.00
2018-12-29T14:47:31.877Z,32.73
2018-12-29T14:50:09.692Z,34.00
2018-12-29T14:53:14.679Z,32.80
2018-12-29T14:55:29.240Z,26.47
2018-12-29T14:57:27.618Z,27.33
2018-12-29T15:00:06.771Z,35.80
2018-12-29T15:02:46.271Z,35.90
2018-12-29T15:04:52.789Z,37.23
2018-12-29T15:07:01.421Z,37.70
2018-12-29T15:09:18.506Z,38.30
2018-12-29T15:11:48.052Z,38.30
2018-12-29T15:14:09.400Z,40.97
2018-12-29T15:16:16.380Z,39.83
2018-12-29T15:18:43.588Z,40.30
2018-12-29T15:20:49.452Z,39.47
2018-12-29T15:22:57.204Z,38.63
2018-12-29T15:25:25.623Z,37.67
2018-12-29T15:27:37.119Z,33.30
2018-12-29T15:29:52.558Z,33.53
2018-12-29T15:32:34.777Z,33.40
2018-12-29T15:34:54.004Z,31.13
2018-12-29T15:37:04.788Z,32.40
2018-12-29T15:42:35.047Z,29.50
2018-12-29T15:45:28.624Z,28.43
2018-12-29T15:47:32.635Z,25.57
2018-12-29T15:49:36.480Z,28.83
2018-12-29T15:51:43.146Z,28.00
2018-12-29T15:57:59.502Z,27.17
2018-12-29T15:58:57.041Z,29.00
2018-12-29T16:01:01.006Z,25.97
2018-12-29T16:03:04.778Z,29.17
2018-12-29T16:05:14.876Z,22.20
2018-12-29T16:07:23.923Z,25.73
2018-12-29T16:09:29.118Z,25.83
2018-12-29T16:11:33.563Z,23.23
2018-12-29T16:13:38.604Z,23.00
2018-12-29T16:15:44.686Z,21.53
2018-12-29T16:17:48.467Z,22.10
2018-12-29T16:20:33.244Z,21.83
2018-12-29T16:22:40.943Z,21.57
2018-12-29T16:24:44.788Z,20.67
2018-12-29T16:26:53.599Z,21.87
2018-12-29T16:29:01.122Z,21.20
2018-12-29T16:31:06.754Z,24.13
2018-12-29T16:33:13.918Z,23.60
2018-12-29T16:35:18.051Z,22.77
2018-12-29T16:37:21.957Z,20.93
2018-12-29T16:39:50.180Z,23.00
2018-12-29T16:42:54.304Z,23.60
2018-12-29T16:58:38.955Z,22.13
2018-12-29T17:00:45.734Z,22.23
2018-12-29T17:03:02.961Z,22.30
2018-12-29T17:05:43.681Z,22.97
2018-12-29T17:07:49.588Z,23.20
2018-12-29T17:09:53.624Z,23.20
2018-12-29T17:11:57.246Z,24.40
2018-12-29T17:14:01.163Z,22.97
2018-12-29T17:16:04.920Z,22.53
2018-12-29T17:18:08.962Z,24.30
2018-12-29T17:20:12.746Z,24.60
2018-12-29T17:22:16.936Z,23.23
2018-12-29T17:24:20.819Z,29.00
2018-12-29T17:26:24.608Z,26.60
2018-12-29T17:28:28.705Z,27.20
2018-12-29T17:30:32.487Z,29.73
2018-12-29T17:32:36.650Z,27.00
2018-12-29T17:34:40.462Z,28.00
2018-12-29T17:36:44.334Z,28.97
2018-12-29T17:38:48.275Z,31.77
2018-12-29T17:40:52.125Z,32.10
2018-12-29T17:42:55.971Z,32.03
2018-12-29T17:44:59.762Z,34.40
2018-12-29T17:47:03.630Z,30.93
2018-12-29T17:49:07.655Z,33.80
2018-12-29T17:51:11.429Z,35.77
2018-12-29T17:53:15.273Z,33.03
2018-12-29T17:55:19.147Z,37.27
2018-12-29T17:57:23.304Z,34.70
2018-12-29T17:59:40.706Z,37.80
2018-12-29T18:01:49.349Z,35.50
2018-12-29T18:03:53.133Z,36.40
2018-12-29T18:08:43.570Z,38.30
2018-12-29T18:10:47.504Z,38.07
2018-12-29T18:12:51.618Z,37.30
2018-12-29T18:14:55.618Z,39.87
2018-12-29T18:16:59.522Z,38.77
2018-12-29T18:19:04.385Z,38.53
2018-12-29T18:21:08.447Z,36.80
2018-12-29T18:23:12.899Z,39.27
2018-12-29T18:25:17.166Z,40.03
2018-12-29T18:27:23.526Z,37.43
2018-12-29T18:29:36.159Z,37.93
2018-12-29T18:31:40.097Z,43.33
2018-12-29T18:33:49.752Z,39.07
2018-12-29T18:35:53.254Z,36.77
2018-12-29T18:37:56.697Z,39.80
2018-12-29T18:40:01.367Z,38.57
2018-12-29T18:42:09.675Z,37.60
2018-12-29T18:44:18.917Z,39.60
2018-12-29T18:46:24.099Z,38.10
2018-12-29T18:48:27.890Z,35.30
2018-12-29T18:50:33.522Z,36.13
2018-12-29T18:52:41.294Z,35.60
2018-12-29T18:54:48.719Z,37.03
2018-12-29T18:56:58.224Z,36.63
2018-12-29T18:59:04.584Z,35.73
2018-12-29T19:01:08.576Z,35.83
2018-12-29T19:03:16.406Z,34.80
2018-12-29T19:05:27.384Z,30.77
2018-12-29T19:07:35.787Z,32.10
2018-12-29T19:09:39.847Z,32.20
2018-12-29T19:11:44.030Z,31.50
2018-12-29T19:13:49.586Z,32.77
2018-12-29T19:15:53.659Z,29.47
2018-12-29T19:17:57.547Z,32.10
2018-12-29T19:20:01.959Z,31.63
2018-12-29T19:22:06.160Z,29.97
2018-12-29T19:24:12.383Z,30.20
2018-12-29T19:26:16.841Z,28.60
2018-12-29T19:28:21.026Z,24.00
2018-12-29T19:30:24.827Z,24.37
2018-12-29T19:32:31.368Z,24.27
2018-12-29T19:34:35.543Z,22.33
2018-12-29T19:36:45.384Z,22.67
2018-12-29T19:38:50.010Z,18.50
2018-12-29T19:41:07.308Z,18.07
2018-12-29T19:43:13.989Z,17.17
2018-12-29T19:45:18.581Z,17.30
2018-12-29T19:47:31.647Z,16.93
2018-12-29T19:49:40.488Z,17.27
2018-12-29T19:51:46.169Z,16.53
2018-12-29T19:53:54.421Z,15.57
2018-12-29T19:56:01.027Z,12.53
2018-12-29T19:58:29.333Z,10.87
2018-12-29T20:00:38.696Z,12.27
2018-12-29T20:02:48.028Z,10.30
2018-12-29T20:04:52.401Z,4.60
2018-12-29T20:06:59.451Z,3.40
2018-12-29T20:09:03.887Z,3.23
2018-12-29T20:11:07.767Z,4.37
2018-12-29T20:13:11.611Z,2.77
2018-12-29T20:15:15.439Z,2.90
2018-12-29T20:17:19.523Z,2.80
2018-12-29T20:19:23.527Z,2.17
2018-12-29T20:21:27.592Z,2.23
2018-12-29T20:23:31.531Z,2.40
2018-12-29T20:25:35.355Z,1.93
2018-12-29T20:27:39.244Z,2.87
2018-12-29T20:29:43.091Z,2.10
2018-12-29T20:31:46.955Z,2.63
2018-12-29T20:33:51.068Z,1.87
2018-12-29T20:35:56.212Z,2.63
2018-12-29T20:38:00.228Z,3.00
2018-12-29T20:40:04.291Z,2.27
2018-12-29T20:42:08.086Z,2.90
2018-12-29T20:44:11.959Z,3.93
2018-12-29T20:46:15.766Z,3.50
2018-12-29T20:48:19.600Z,3.00
2018-12-29T20:50:26.447Z,3.70
2018-12-29T20:52:30.317Z,4.57
2018-12-29T20:54:34.756Z,3.10
2018-12-29T20:56:44.290Z,4.00
2018-12-29T20:58:49.518Z,3.83
2018-12-29T21:01:07.661Z,4.60
2018-12-29T21:03:11.559Z,3.67
2018-12-29T21:05:15.944Z,4.57
2018-12-29T21:07:19.798Z,5.63
2018-12-29T21:09:23.704Z,4.87
2018-12-29T21:11:27.582Z,5.73
2018-12-29T21:13:31.400Z,5.60
2018-12-29T21:15:36.624Z,4.67
2018-12-29T21:17:40.654Z,5.43
2018-12-29T21:19:44.554Z,3.90
2018-12-29T21:21:50.745Z,4.13
2018-12-29T21:24:11.904Z,4.83
2018-12-29T21:26:07.607Z,4.93
2018-12-29T21:28:33.676Z,3.60
2018-12-29T21:30:41.956Z,5.50
2018-12-29T21:33:03.387Z,5.37
2018-12-29T21:37:06.973Z,6.37
2018-12-29T21:37:55.295Z,4.50
2018-12-29T21:40:13.648Z,5.60
2018-12-29T21:44:35.656Z,4.23
2018-12-29T21:48:16.216Z,3.47
2018-12-29T21:50:45.821Z,5.60
2018-12-29T21:54:03.705Z,3.00
2018-12-29T21:56:55.242Z,4.20
2018-12-29T21:59:35.155Z,4.03
2018-12-29T22:02:19.446Z,4.73
2018-12-29T22:05:45.046Z,3.70
2018-12-29T22:08:28.047Z,3.90
2018-12-29T22:11:00.984Z,3.70
2018-12-29T22:13:18.309Z,4.23
2018-12-29T22:15:30.173Z,4.50
2018-12-29T22:17:43.816Z,4.67
2018-12-29T22:19:59.554Z,4.33
2018-12-29T22:22:31.636Z,4.37
2018-12-29T22:47:54.176Z,4.90
2018-12-29T22:53:34.276Z,5.57
2018-12-29T22:59:42.359Z,5.30
2018-12-29T23:03:10.399Z,3.87
2018-12-29T23:05:49.236Z,6.17
2018-12-29T23:16:19.032Z,4.70
2018-12-29T23:21:57.230Z,4.40
2018-12-29T23:28:10.287Z,4.83
2018-12-29T23:30:53.808Z,4.00
2018-12-29T23:33:24.527Z,3.77
2018-12-29T23:44:05.469Z,5.30
